Terminal Aerodrome Forecast
Issued by NWS

Home | Current Version | Previous Version | Text Only | Print | Product List | Glossary Off
Versions: 1 2 3 4 5 6 7 8 9 10 11 12 13 14 15 16

000
FTUS43 KBIS 241700
TAFJMS
TAF
KJMS 241736Z 2418/2518 30008KT P6SM BKN150
     FM242100 36008KT 3SM -RASN BR OVC012
     FM250000 33011KT 2SM -SN BR OVC006
     FM251200 35007KT P6SM OVC025=

USA.gov is the U.S. government's official web portal to all federal, state and local government web resources and services.